Time;durP1;ratioP1;P1;durP2;ratioP2;P2;SDS_P1;SDS_P2;PMS_P1;PMS_P2;Temp;Humidity;BMP_temperature;BMP_pressure;BME280_temperature;BME280_humidity;BME280_pressure;Samples;Min_cycle;Max_cycle;Signal;HPM_P1;HPM_P2
2022/01/27 00:04:08;;;;;;;57.95;30.88;;;;;;;1.46;80.49;102737.41;10495888;28;20021;-77
2022/01/27 00:09:24;;;;;;;49.60;31.00;;;;;;;1.51;80.58;102737.94;10494941;28;20459;-77
2022/01/27 00:14:24;;;;;;;44.58;26.50;;;;;;;1.52;80.47;102734.63;10493893;28;20400;-77
2022/01/27 00:19:25;;;;;;;50.15;27.98;;;;;;;1.53;80.33;102731.28;10496083;28;20067;-77
2022/01/27 00:24:26;;;;;;;45.58;27.08;;;;;;;1.52;80.00;102718.19;10493854;28;20060;-77
2022/01/27 00:29:26;;;;;;;46.53;27.13;;;;;;;1.56;80.23;102711.00;10501558;28;20624;-77
2022/01/27 00:34:27;;;;;;;46.95;28.20;;;;;;;1.64;79.97;102690.28;10494175;28;20074;-77
2022/01/27 00:39:27;;;;;;;49.83;27.30;;;;;;;1.66;79.76;102676.78;10486464;28;20554;-77
2022/01/27 00:44:27;;;;;;;45.63;27.27;;;;;;;1.69;79.45;102663.34;10490144;28;20052;-77
2022/01/27 00:49:28;;;;;;;48.58;27.38;;;;;;;1.66;80.19;102663.88;10457648;28;20079;-78
2022/01/27 00:54:29;;;;;;;44.75;27.48;;;;;;;1.62;80.10;102653.97;10454967;28;20075;-77
2022/01/27 00:59:38;;;;;;;48.83;26.13;;;;;;;1.65;80.28;102617.28;10466896;28;20021;-77
2022/01/27 01:04:42;;;;;;;51.50;26.15;;;;;;;1.59;80.67;102631.31;10484060;28;20039;-78
2022/01/27 01:31:13;;;;;;;42.08;23.55;;;;;;;1.64;81.01;102625.75;10483341;28;20068;-78
2022/01/27 01:36:34;;;;;;;45.17;24.75;;;;;;;1.66;80.80;102632.00;10492410;28;20052;-77
2022/01/27 01:41:34;;;;;;;39.88;23.27;;;;;;;1.67;81.10;102624.41;10489404;28;20052;-77
2022/01/27 01:46:34;;;;;;;43.20;24.77;;;;;;;1.65;80.82;102615.59;10498531;28;20025;-78
2022/01/27 01:51:36;;;;;;;46.13;27.38;;;;;;;1.69;80.91;102610.03;10468932;28;20427;-77
2022/01/27 01:56:37;;;;;;;43.80;26.17;;;;;;;1.69;80.63;102591.06;10460416;28;20059;-77
2022/01/27 02:01:38;;;;;;;43.80;24.17;;;;;;;1.76;80.43;102570.34;10486083;28;20028;-77
2022/01/27 02:06:54;;;;;;;48.55;24.27;;;;;;;1.79;80.55;102568.09;10476317;28;20303;-78
2022/01/27 02:22:33;;;;;;;50.60;25.23;;;;;;;1.80;80.72;102554.44;10479787;28;20052;-77
2022/01/27 02:27:34;;;;;;;42.55;23.95;;;;;;;1.89;80.52;102557.09;10460858;28;20115;-77
2022/01/27 02:32:35;;;;;;;47.58;24.52;;;;;;;1.88;80.52;102568.16;10491672;28;20070;-78
2022/01/27 02:37:35;;;;;;;39.78;21.02;;;;;;;1.91;80.38;102540.09;10493432;28;20041;-77
2022/01/27 02:42:36;;;;;;;38.05;22.55;;;;;;;1.96;80.42;102532.88;10489114;28;20150;-78
2022/01/27 02:47:37;;;;;;;47.17;25.35;;;;;;;1.91;80.17;102522.03;10472422;28;20041;-77
2022/01/27 02:52:38;;;;;;;42.97;23.23;;;;;;;1.88;80.66;102503.63;10478003;28;20029;-77
2022/01/27 02:57:39;;;;;;;44.75;25.15;;;;;;;1.89;80.52;102511.53;10467854;28;20032;-77
2022/01/27 03:02:39;;;;;;;42.27;25.60;;;;;;;1.92;81.07;102522.97;10476634;28;20028;-77
2022/01/27 03:07:40;;;;;;;43.17;22.40;;;;;;;1.96;80.83;102515.69;10496031;28;20071;-78
2022/01/27 03:12:40;;;;;;;40.28;25.30;;;;;;;1.96;80.98;102527.72;10476013;28;20072;-77
2022/01/27 03:17:41;;;;;;;41.75;23.90;;;;;;;1.98;80.96;102521.03;10463363;28;20035;-77
2022/01/27 03:22:41;;;;;;;36.88;22.88;;;;;;;2.08;80.91;102507.44;10459963;28;20116;-77
2022/01/27 03:27:46;;;;;;;45.25;22.48;;;;;;;2.09;80.63;102493.78;10478659;28;20042;-77
2022/01/27 03:32:47;;;;;;;41.45;24.60;;;;;;;2.11;81.03;102484.53;10488789;28;21523;-77
2022/01/27 03:37:48;;;;;;;37.88;22.50;;;;;;;2.18;80.42;102468.94;10479646;28;20066;-78
2022/01/27 03:42:50;;;;;;;39.67;22.50;;;;;;;2.20;81.25;102460.63;10495049;28;20087;-77
2022/01/27 03:47:51;;;;;;;38.53;22.55;;;;;;;2.24;81.31;102463.53;10478121;28;20093;-78
2022/01/27 03:52:51;;;;;;;41.42;22.95;;;;;;;2.30;80.43;102452.16;10493276;28;20177;-77
2022/01/27 03:57:52;;;;;;;42.35;20.55;;;;;;;2.32;81.01;102447.16;10471928;28;20508;-77
2022/01/27 04:03:02;;;;;;;39.88;24.65;;;;;;;2.38;80.98;102444.31;10464906;28;20032;-78
2022/01/27 04:08:03;;;;;;;34.72;20.25;;;;;;;2.33;81.18;102429.22;10490448;28;20384;-77
2022/01/27 04:13:05;;;;;;;35.63;19.00;;;;;;;2.35;81.13;102440.66;10470979;28;20630;-77
2022/01/27 04:18:05;;;;;;;45.63;22.50;;;;;;;2.43;81.26;102449.22;10466569;28;20291;-78
2022/01/27 04:23:06;;;;;;;37.72;21.67;;;;;;;2.43;80.85;102443.13;10461208;28;20472;-77
2022/01/27 04:28:11;;;;;;;40.17;21.00;;;;;;;2.44;80.88;102447.53;10454780;28;20037;-77
2022/01/27 04:33:16;;;;;;;39.60;23.40;;;;;;;2.49;81.43;102433.44;10479740;28;20087;-78
2022/01/27 04:38:22;;;;;;;37.83;21.40;;;;;;;2.54;80.97;102409.00;10489132;28;20507;-77
2022/01/27 04:48:34;;;;;;;43.47;22.00;;;;;;;2.52;80.82;102402.75;10466137;28;20041;-78
2022/01/27 04:53:39;;;;;;;36.58;23.58;;;;;;;2.40;81.45;102386.88;10483579;28;20037;-79
2022/01/27 04:58:41;;;;;;;33.33;23.17;;;;;;;2.43;81.76;102383.69;10481666;28;20460;-78
2022/01/27 05:03:55;;;;;;;42.17;19.85;;;;;;;2.43;81.61;102391.44;10483468;28;20036;-79
2022/01/27 05:08:56;;;;;;;36.08;21.92;;;;;;;2.54;81.91;102382.25;10485747;28;20463;-76
2022/01/27 05:18:57;;;;;;;37.20;20.98;;;;;;;2.61;81.66;102364.94;10483352;28;20072;-78
2022/01/27 05:23:57;;;;;;;35.45;20.25;;;;;;;2.62;81.31;102355.53;10492021;28;20483;-77
2022/01/27 05:28:58;;;;;;;43.35;21.52;;;;;;;2.62;81.73;102351.25;10490756;28;20064;-78
2022/01/27 05:33:58;;;;;;;37.53;21.85;;;;;;;2.58;81.98;102330.09;10472221;28;20154;-77
2022/01/27 05:38:59;;;;;;;46.33;25.60;;;;;;;2.45;82.35;102341.75;10480235;28;20032;-77
2022/01/27 05:44:00;;;;;;;31.17;18.67;;;;;;;2.44;82.87;102328.66;10486259;28;20037;-77
2022/01/27 05:49:01;;;;;;;39.15;22.20;;;;;;;2.35;82.82;102323.47;10468583;28;20037;-77
2022/01/27 05:54:03;;;;;;;41.15;23.25;;;;;;;2.24;83.80;102326.59;10479847;28;20073;-78
2022/01/27 05:59:04;;;;;;;40.67;22.92;;;;;;;2.16;83.80;102318.97;10462992;28;20032;-79
2022/01/27 06:04:04;;;;;;;48.97;22.27;;;;;;;2.27;83.98;102316.59;10480292;28;20063;-78
2022/01/27 06:09:05;;;;;;;48.20;24.52;;;;;;;2.14;84.18;102310.13;10494131;28;21815;-80
2022/01/27 06:14:06;;;;;;;41.05;24.13;;;;;;;2.15;84.57;102299.03;10492757;28;20058;-82
2022/01/27 06:19:07;;;;;;;49.17;24.92;;;;;;;2.11;84.47;102296.91;10493418;28;20429;-81
2022/01/27 06:24:08;;;;;;;45.28;27.02;;;;;;;2.17;85.03;102283.69;10486858;28;20107;-80
2022/01/27 06:29:08;;;;;;;43.15;27.02;;;;;;;2.34;84.99;102283.78;10470854;28;20029;-80
2022/01/27 06:34:09;;;;;;;43.90;27.25;;;;;;;2.57;84.11;102249.03;10493057;28;20052;-80
2022/01/27 06:39:09;;;;;;;48.90;23.58;;;;;;;2.79;83.29;102271.91;10496719;28;20545;-80
2022/01/27 06:44:10;;;;;;;46.47;26.80;;;;;;;2.97;83.08;102280.63;10476366;28;20076;-79
2022/01/27 06:49:16;;;;;;;39.00;22.77;;;;;;;2.99;82.81;102281.69;10492966;28;20032;-80
2022/01/27 06:54:17;;;;;;;51.17;27.20;;;;;;;3.03;82.74;102280.31;10487033;28;20028;-80
2022/01/27 06:59:18;;;;;;;46.53;27.27;;;;;;;3.07;82.80;102278.22;10474842;28;20119;-80
2022/01/27 07:04:18;;;;;;;45.28;28.08;;;;;;;3.11;82.27;102281.13;10471015;28;20032;-78
2022/01/27 07:09:19;;;;;;;48.30;25.73;;;;;;;3.11;82.99;102268.19;10475807;28;20075;-79
2022/01/27 07:14:20;;;;;;;50.50;28.05;;;;;;;3.08;83.14;102269.69;10466613;28;20036;-78
2022/01/27 07:19:20;;;;;;;48.85;27.92;;;;;;;3.04;83.43;102272.75;10462184;28;20052;-79
2022/01/27 07:24:21;;;;;;;50.97;27.85;;;;;;;2.99;84.31;102258.44;10492502;28;20075;-79
2022/01/27 07:29:21;;;;;;;60.15;31.35;;;;;;;2.96;84.92;102264.94;10476900;28;20115;-78
2022/01/27 07:34:22;;;;;;;54.15;29.13;;;;;;;3.02;85.04;102253.56;10492705;28;20431;-77
2022/01/27 07:39:22;;;;;;;52.35;30.65;;;;;;;3.05;85.23;102258.13;10484739;28;20047;-79
2022/01/27 07:44:24;;;;;;;49.53;27.77;;;;;;;3.15;85.04;102257.38;10480080;28;20075;-79
2022/01/27 07:49:25;;;;;;;52.72;30.02;;;;;;;3.16;85.00;102251.44;10469490;28;20814;-80
2022/01/27 07:54:25;;;;;;;54.97;27.90;;;;;;;3.23;84.64;102262.53;10488055;28;20033;-79
2022/01/27 07:59:26;;;;;;;52.00;30.48;;;;;;;3.27;84.66;102265.44;10487001;28;20040;-80
2022/01/27 08:04:26;;;;;;;59.83;29.55;;;;;;;3.29;84.65;102259.66;10487259;28;20067;-79
2022/01/27 08:09:27;;;;;;;63.40;29.10;;;;;;;3.38;83.93;102250.22;10462625;28;20506;-78
2022/01/27 08:14:27;;;;;;;55.40;30.85;;;;;;;3.46;83.94;102265.59;10493557;28;20029;-79
2022/01/27 08:19:28;;;;;;;55.95;29.45;;;;;;;3.46;83.91;102263.00;10476560;28;20123;-78
2022/01/27 08:24:28;;;;;;;56.67;29.92;;;;;;;3.46;83.82;102270.78;10488959;28;20056;-80
2022/01/27 08:29:38;;;;;;;49.40;30.10;;;;;;;3.46;84.36;102273.38;10479748;28;20068;-80
2022/01/27 08:34:41;;;;;;;57.05;29.80;;;;;;;3.48;84.52;102279.59;10502403;28;20361;-80
2022/01/27 08:39:42;;;;;;;53.83;30.17;;;;;;;3.50;84.38;102276.38;10494410;28;20033;-79
2022/01/27 08:44:42;;;;;;;50.20;33.47;;;;;;;3.46;85.79;102276.84;10475617;28;20082;-80
2022/01/27 08:49:45;;;;;;;51.33;31.45;;;;;;;3.41;87.73;102274.59;10462279;28;20033;-79
2022/01/27 08:54:45;;;;;;;67.68;35.78;;;;;;;3.26;88.46;102272.31;10465271;28;20032;-79
2022/01/27 08:59:47;;;;;;;72.28;41.08;;;;;;;3.14;89.36;102263.31;10473646;28;20490;-82
2022/01/27 09:04:48;;;;;;;81.40;41.13;;;;;;;3.15;89.61;102259.97;10481794;28;20070;-83
2022/01/27 09:09:49;;;;;;;71.72;38.22;;;;;;;3.09;90.55;102270.59;10498056;28;20035;-83
2022/01/27 09:14:49;;;;;;;73.40;40.08;;;;;;;3.14;90.95;102258.13;10503030;28;20115;-83
2022/01/27 09:19:50;;;;;;;66.78;36.63;;;;;;;3.21;91.32;102269.22;10484868;28;20032;-82
2022/01/27 09:24:58;;;;;;;77.00;39.40;;;;;;;3.22;90.91;102263.31;10497936;28;20066;-83
2022/01/27 09:29:58;;;;;;;73.05;40.95;;;;;;;3.25;91.15;102264.38;10512357;28;20043;-82
2022/01/27 09:34:59;;;;;;;71.15;40.55;;;;;;;3.28;91.71;102265.59;10503559;28;20062;-79
2022/01/27 09:39:59;;;;;;;80.00;46.28;;;;;;;3.31;91.74;102259.81;10523268;28;20036;-83
2022/01/27 09:45:02;;;;;;;74.45;41.05;;;;;;;3.34;92.41;102257.50;10498718;28;20072;-82
2022/01/27 09:50:24;;;;;;;72.35;40.10;;;;;;;3.42;92.20;102253.13;10473560;28;20035;-83
2022/01/27 09:55:28;;;;;;;77.30;42.13;;;;;;;3.51;92.48;102259.19;10515269;28;20115;-81
2022/01/27 10:00:29;;;;;;;82.13;44.40;;;;;;;3.58;92.86;102253.88;10509630;28;20392;-81
2022/01/27 10:05:29;;;;;;;76.80;48.55;;;;;;;3.63;92.52;102254.31;10510746;28;20807;-81
2022/01/27 10:10:44;;;;;;;93.65;52.63;;;;;;;3.69;92.33;102257.50;10506669;28;20040;-80
2022/01/27 10:15:46;;;;;;;81.28;42.17;;;;;;;3.86;92.45;102250.44;10516820;28;20483;-80
2022/01/27 10:21:07;;;;;;;;;;;;;;;3.88;92.74;102252.44;10507440;28;20372;-80
2022/01/27 10:26:15;;;;;;;78.15;38.95;;;;;;;3.93;92.67;102253.81;10520218;28;19919;-81
2022/01/27 10:31:21;;;;;;;65.10;33.97;;;;;;;3.96;92.75;102263.53;10495526;28;20361;-81
2022/01/27 10:36:28;;;;;;;69.60;39.53;;;;;;;4.08;92.52;102253.44;10512194;28;20430;-81
2022/01/27 10:41:30;;;;;;;61.72;37.30;;;;;;;4.12;92.68;102255.56;10515998;28;20447;-80
2022/01/27 10:46:31;;;;;;;63.00;34.45;;;;;;;4.14;93.00;102251.44;10480953;28;20032;-81
2022/01/27 10:51:51;;;;;;;56.88;33.88;;;;;;;4.20;92.58;102257.22;10495519;28;20087;-81
2022/01/27 10:56:52;;;;;;;58.10;31.35;;;;;;;4.26;93.01;102244.84;10482050;28;20064;-82
2022/01/27 11:01:52;;;;;;;53.75;30.80;;;;;;;4.31;93.34;102244.38;10495496;28;20055;-81
2022/01/27 11:06:58;;;;;;;56.47;30.75;;;;;;;4.41;93.04;102242.78;10496522;28;20392;-81
2022/01/27 11:11:59;;;;;;;51.05;30.88;;;;;;;4.46;92.76;102240.63;10495696;28;20045;-81
2022/01/27 11:17:01;;;;;;;48.05;26.92;;;;;;;4.53;93.20;102235.25;10496905;28;20464;-82
2022/01/27 11:22:07;;;;;;;;;;;;;;;4.58;92.89;102239.97;10477198;28;20028;-82
2022/01/27 11:27:08;;;;;;;40.40;24.83;;;;;;;4.61;93.18;102225.59;10496057;28;19966;-82
2022/01/27 11:32:16;;;;;;;45.10;23.27;;;;;;;4.61;93.02;102220.41;10495257;28;20052;-82
2022/01/27 11:37:29;;;;;;;40.38;24.02;;;;;;;4.65;93.14;102204.34;10479561;28;20025;-82
2022/01/27 11:42:54;;;;;;;40.75;23.42;;;;;;;4.74;92.83;102209.50;10477167;28;20048;-81
2022/01/27 11:48:23;;;;;;;42.20;23.92;;;;;;;4.78;92.41;102203.84;10497193;28;20400;-81
2022/01/27 11:53:48;;;;;;;32.95;21.90;;;;;;;4.88;92.44;102194.31;10496006;28;20033;-81
2022/01/27 11:59:08;;;;;;;40.17;21.58;;;;;;;4.89;92.77;102191.84;10495517;28;20021;-82
2022/01/27 12:04:11;;;;;;;32.80;17.65;;;;;;;4.92;92.10;102184.34;10494824;28;20107;-81
2022/01/27 12:09:20;;;;;;;35.65;21.50;;;;;;;4.98;92.56;102171.91;10500890;28;20025;-81
2022/01/27 12:14:46;;;;;;;36.30;18.17;;;;;;;5.11;92.69;102178.22;10503714;28;20039;-82
2022/01/27 12:20:07;;;;;;;33.95;18.85;;;;;;;5.18;92.31;102170.22;10495616;28;20480;-81
2022/01/27 12:25:08;;;;;;;32.10;17.63;;;;;;;5.26;91.63;102165.75;10520295;28;20107;-82
2022/01/27 12:30:10;;;;;;;32.53;19.10;;;;;;;5.31;91.79;102150.56;10526760;28;20024;-82
2022/01/27 12:35:15;;;;;;;32.47;19.40;;;;;;;5.31;92.10;102171.34;10493409;28;20029;-81
2022/01/27 12:40:17;;;;;;;28.77;17.48;;;;;;;5.33;91.91;102162.91;10495762;28;20033;-82
2022/01/27 12:45:25;;;;;;;33.13;18.30;;;;;;;5.37;92.58;102161.50;10493613;28;20075;-82
2022/01/27 12:50:28;;;;;;;29.98;17.80;;;;;;;5.39;92.82;102155.69;10480980;28;20076;-82
2022/01/27 12:55:33;;;;;;;27.27;16.80;;;;;;;5.42;92.81;102152.44;10503460;28;20040;-82
2022/01/27 13:01:02;;;;;;;35.17;16.80;;;;;;;5.38;92.73;102150.34;10505757;28;20500;-81
2022/01/27 13:06:05;;;;;;;27.88;15.60;;;;;;;5.40;92.75;102131.53;10521831;28;20812;-84
2022/01/27 13:11:11;;;;;;;41.60;18.52;;;;;;;5.40;92.89;102128.94;10500087;28;20036;-80
2022/01/27 13:16:20;;;;;;;28.83;18.80;;;;;;;5.41;92.51;102137.63;10490027;28;20063;-83
2022/01/27 13:21:25;;;;;;;37.22;20.92;;;;;;;5.44;92.75;102131.03;10453882;28;20442;-83
2022/01/27 13:26:25;;;;;;;32.88;22.27;;;;;;;5.51;93.29;102137.66;10493672;28;20399;-82
2022/01/27 13:31:26;;;;;;;37.33;21.20;;;;;;;5.58;93.29;102111.47;10507327;28;20043;-82
2022/01/27 13:36:27;;;;;;;36.50;22.27;;;;;;;5.61;93.41;102130.69;10496842;28;20029;-81
2022/01/27 13:41:29;;;;;;;33.70;22.25;;;;;;;5.73;92.37;102147.34;10522334;28;20048;-82
2022/01/27 13:46:55;;;;;;;35.80;22.75;;;;;;;5.75;93.00;102137.13;10504962;28;20475;-79
2022/01/27 13:52:07;;;;;;;35.55;21.25;;;;;;;5.79;92.69;102142.69;10535032;28;20035;-80
2022/01/27 13:57:08;;;;;;;;;;;;;;;5.88;92.04;102137.41;10531099;28;20446;-80
2022/01/27 14:02:17;;;;;;;38.33;21.23;;;;;;;5.86;92.07;102133.75;10529782;28;20658;-79
2022/01/27 14:07:27;;;;;;;34.92;20.77;;;;;;;5.92;91.65;102151.56;10461946;28;20037;-82
2022/01/27 14:12:46;;;;;;;35.72;24.40;;;;;;;5.95;92.96;102144.97;10499767;28;20032;-80
2022/01/27 14:17:47;;;;;;;30.77;21.20;;;;;;;6.06;91.96;102155.41;10482141;28;20041;-78
2022/01/27 14:22:51;;;;;;;36.38;24.23;;;;;;;6.08;92.14;102154.75;10493964;28;20040;-78
2022/01/27 14:27:51;;;;;;;38.97;24.02;;;;;;;6.13;91.61;102163.84;10466126;28;20032;-80
2022/01/27 14:32:52;;;;;;;36.38;24.67;;;;;;;6.16;91.47;102165.81;10498207;28;20036;-79
2022/01/27 14:37:57;;;;;;;42.50;25.95;;;;;;;6.20;91.94;102175.72;10493466;28;20074;-80
2022/01/27 14:43:00;;;;;;;38.78;22.55;;;;;;;6.22;91.95;102165.44;10478132;28;21460;-82
2022/01/27 14:48:03;;;;;;;38.10;23.75;;;;;;;6.24;91.66;102172.59;10507359;28;20028;-82
2022/01/27 14:53:04;;;;;;;38.75;24.63;;;;;;;6.21;91.60;102174.94;10505409;28;20024;-82
2022/01/27 14:58:04;;;;;;;35.78;25.05;;;;;;;6.23;91.86;102177.66;10461004;28;20598;-84
2022/01/27 15:03:05;;;;;;;36.20;26.05;;;;;;;6.23;91.41;102178.56;10505926;28;20107;-83
2022/01/27 15:08:05;;;;;;;41.13;23.77;;;;;;;6.25;91.21;102181.28;10514036;28;20034;-82
2022/01/27 15:13:09;;;;;;;35.08;22.15;;;;;;;6.30;91.32;102187.78;10514160;28;20048;-81
2022/01/27 15:23:29;;;;;;;35.75;21.92;;;;;;;6.36;91.31;102198.72;10491553;28;20375;-79
2022/01/27 15:28:29;;;;;;;32.28;19.00;;;;;;;6.38;90.78;102204.97;10508024;28;20065;-79
2022/01/27 15:33:30;;;;;;;31.77;20.60;;;;;;;6.41;90.35;102207.84;10488753;28;20051;-81
2022/01/27 15:38:33;;;;;;;34.55;18.65;;;;;;;6.37;90.60;102210.06;10505121;28;20384;-81
2022/01/27 15:43:33;;;;;;;32.70;19.85;;;;;;;6.33;90.47;102195.88;10488290;28;20051;-78
2022/01/27 15:48:34;;;;;;;32.80;19.40;;;;;;;6.33;90.52;102208.88;10471436;28;20040;-82
2022/01/27 15:53:34;;;;;;;32.20;20.17;;;;;;;6.33;90.22;102201.06;10472396;28;20043;-81
2022/01/27 15:58:35;;;;;;;31.45;19.15;;;;;;;6.26;90.61;102203.91;10474856;28;20055;-82
2022/01/27 16:03:35;;;;;;;49.13;21.45;;;;;;;6.27;90.73;102201.47;10497733;28;20386;-79
2022/01/27 16:08:36;;;;;;;30.83;18.00;;;;;;;6.22;90.62;102201.81;10489992;28;20059;-77
2022/01/27 16:13:36;;;;;;;36.70;20.90;;;;;;;6.23;90.81;102216.66;10483206;28;20078;-77
2022/01/27 16:18:37;;;;;;;23.65;16.27;;;;;;;6.28;90.59;102226.69;10504486;28;20025;-79
2022/01/27 16:23:37;;;;;;;28.42;19.52;;;;;;;6.29;90.57;102220.72;10456131;28;20377;-77
2022/01/27 16:28:38;;;;;;;28.13;15.77;;;;;;;6.29;90.67;102238.91;10521212;28;20024;-78
2022/01/27 16:33:38;;;;;;;27.88;14.90;;;;;;;6.30;90.43;102235.53;10525924;28;20496;-77
2022/01/27 16:38:39;;;;;;;25.10;14.80;;;;;;;6.31;90.10;102252.03;10499238;28;20043;-79
2022/01/27 16:43:40;;;;;;;27.35;12.57;;;;;;;6.27;90.46;102255.13;10469307;28;20044;-78
2022/01/27 16:48:41;;;;;;;37.20;13.98;;;;;;;6.23;89.22;102259.16;10502455;28;20039;-81
2022/01/27 16:53:42;;;;;;;22.60;13.43;;;;;;;6.20;90.26;102252.78;10502093;28;20036;-80
2022/01/27 16:58:42;;;;;;;26.98;13.98;;;;;;;6.18;90.74;102265.66;10514254;28;20047;-79
2022/01/27 17:03:43;;;;;;;19.17;13.15;;;;;;;6.18;90.89;102273.47;10522509;28;20467;-80
2022/01/27 17:08:45;;;;;;;21.42;12.88;;;;;;;6.13;90.52;102273.03;10511431;28;20035;-80
2022/01/27 17:13:45;;;;;;;;;;;;;;;6.00;91.29;102278.84;10485855;28;20064;-81
2022/01/27 17:18:48;;;;;;;27.58;14.20;;;;;;;6.00;91.13;102297.03;10510374;28;20001;-82
2022/01/27 17:23:49;;;;;;;22.55;12.23;;;;;;;6.02;90.58;102292.91;10477324;28;20052;-80
2022/01/27 17:28:49;;;;;;;20.88;11.68;;;;;;;5.90;89.97;102304.75;10490238;28;20056;-80
2022/01/27 17:33:50;;;;;;;29.77;15.48;;;;;;;5.71;90.26;102305.69;10459504;28;20068;-80
2022/01/27 17:38:50;;;;;;;30.00;13.20;;;;;;;5.57;90.49;102332.09;10498688;28;20077;-81
2022/01/27 17:43:59;;;;;;;26.75;12.70;;;;;;;5.57;90.08;102338.19;10511459;28;20126;-80
2022/01/27 17:48:59;;;;;;;20.63;12.73;;;;;;;5.41;89.70;102343.69;10525953;28;20032;-81
2022/01/27 17:54:00;;;;;;;25.73;13.00;;;;;;;5.33;90.49;102346.31;10525064;28;20071;-80
2022/01/27 17:59:01;;;;;;;19.50;10.88;;;;;;;5.27;89.83;102346.69;10543694;28;20012;-81
2022/01/27 18:04:02;;;;;;;18.10;10.15;;;;;;;5.24;89.86;102346.41;10523502;28;20028;-81
2022/01/27 18:09:04;;;;;;;25.83;10.63;;;;;;;5.34;90.16;102359.47;10524650;28;20032;-80
2022/01/27 18:14:04;;;;;;;18.73;9.18;;;;;;;5.40;89.55;102365.22;10541733;28;20144;-81
2022/01/27 18:19:05;;;;;;;19.00;10.27;;;;;;;5.34;89.30;102385.44;10540345;28;20144;-80
2022/01/27 18:24:07;;;;;;;16.88;8.48;;;;;;;5.28;88.13;102380.56;10523515;28;20452;-80
2022/01/27 18:29:07;;;;;;;;;;;;;;;5.34;87.40;102395.81;10541947;28;20395;-80
2022/01/27 18:34:08;;;;;;;14.23;6.88;;;;;;;5.46;86.07;102402.94;10539634;28;20011;-80
2022/01/27 18:39:08;;;;;;;8.60;4.70;;;;;;;5.53;85.49;102410.50;10540171;28;20024;-80
2022/01/27 18:44:09;;;;;;;13.52;4.15;;;;;;;5.60;84.34;102423.31;10541006;28;20111;-80
2022/01/27 18:49:10;;;;;;;6.68;2.85;;;;;;;5.66;83.57;102428.13;10540933;28;20047;-81
2022/01/27 18:54:10;;;;;;;13.70;4.30;;;;;;;5.69;83.86;102433.63;10539559;28;20032;-80
2022/01/27 18:59:11;;;;;;;9.68;2.85;;;;;;;5.67;82.71;102437.75;10522077;28;20520;-80
2022/01/27 19:04:12;;;;;;;10.32;4.65;;;;;;;5.64;82.53;102437.47;10539396;28;20134;-80
2022/01/27 19:09:12;;;;;;;15.85;3.65;;;;;;;5.62;82.69;102441.59;10540174;28;20027;-80
2022/01/27 19:14:13;;;;;;;9.07;3.03;;;;;;;5.58;82.61;102448.22;10538350;28;20122;-80
2022/01/27 19:19:14;;;;;;;16.10;3.53;;;;;;;5.55;83.12;102459.22;10539120;28;20442;-80
2022/01/27 19:24:16;;;;;;;16.53;4.77;;;;;;;5.50;82.65;102457.88;10514191;28;20478;-80
2022/01/27 19:29:19;;;;;;;;;;;;;;;5.53;82.51;102476.34;10510691;28;20062;-80
2022/01/27 19:34:22;;;;;;;14.25;3.50;;;;;;;5.46;83.04;102465.25;10500808;28;19920;-79
2022/01/27 19:39:25;;;;;;;11.60;4.05;;;;;;;5.34;82.61;102471.13;10496702;28;20490;-79
2022/01/27 19:44:25;;;;;;;18.30;3.95;;;;;;;5.06;82.77;102467.56;10480463;28;20041;-78
2022/01/27 19:49:26;;;;;;;6.05;3.03;;;;;;;4.87;83.62;102475.28;10513452;28;20111;-79
2022/01/27 19:54:27;;;;;;;11.32;3.95;;;;;;;4.68;83.29;102497.72;10507147;28;20029;-80
2022/01/27 19:59:28;;;;;;;8.50;3.08;;;;;;;4.46;84.73;102519.72;10477694;28;20519;-77
2022/01/27 20:04:28;;;;;;;18.90;7.25;;;;;;;4.14;84.91;102518.38;10488916;28;20115;-77
2022/01/27 20:09:29;;;;;;;14.48;5.20;;;;;;;3.87;86.64;102527.78;10495520;28;20063;-77
2022/01/27 20:14:29;;;;;;;23.85;7.55;;;;;;;3.84;87.60;102542.06;10524705;28;20035;-78
2022/01/27 20:19:30;;;;;;;20.25;8.57;;;;;;;3.81;88.30;102559.13;10475078;28;20120;-78
2022/01/27 20:24:32;;;;;;;14.88;5.43;;;;;;;4.11;88.56;102556.94;10510373;28;20052;-78
2022/01/27 20:29:33;;;;;;;14.10;5.85;;;;;;;4.19;87.79;102570.66;10505717;28;20032;-78
2022/01/27 20:34:33;;;;;;;10.18;5.38;;;;;;;4.28;88.12;102568.97;10498005;28;20040;-78
2022/01/27 20:39:36;;;;;;;14.07;4.05;;;;;;;4.47;86.92;102579.53;10500249;28;20082;-78
2022/01/27 20:44:37;;;;;;;17.73;6.00;;;;;;;4.51;85.77;102589.44;10503162;28;20040;-77
2022/01/27 20:49:37;;;;;;;11.82;3.33;;;;;;;4.35;85.44;102589.56;10499186;28;21910;-77
2022/01/27 20:54:38;;;;;;;11.10;4.28;;;;;;;4.20;86.03;102598.41;10477304;28;20033;-78
2022/01/27 20:59:42;;;;;;;10.48;2.95;;;;;;;4.18;86.01;102605.09;10494824;28;20046;-77
2022/01/27 21:04:45;;;;;;;21.27;5.35;;;;;;;3.99;86.29;102605.81;10478685;28;20041;-75
2022/01/27 21:09:46;;;;;;;11.25;4.35;;;;;;;3.88;86.47;102620.28;10484703;28;20110;-77
2022/01/27 21:14:46;;;;;;;16.33;6.20;;;;;;;3.84;86.27;102622.38;10489664;28;20039;-78
2022/01/27 21:19:48;;;;;;;20.20;8.75;;;;;;;3.91;86.74;102623.19;10494976;28;20039;-77
2022/01/27 21:24:48;;;;;;;12.63;5.03;;;;;;;3.87;86.32;102627.88;10495004;28;20407;-76
2022/01/27 21:29:49;;;;;;;12.52;4.43;;;;;;;3.73;86.55;102642.91;10491866;28;20028;-78
2022/01/27 21:34:51;;;;;;;13.75;4.10;;;;;;;3.74;87.10;102646.44;10490377;28;20032;-78
2022/01/27 21:39:52;;;;;;;16.30;3.83;;;;;;;3.57;86.99;102649.84;10493168;28;20052;-78
2022/01/27 21:44:53;;;;;;;16.23;4.72;;;;;;;3.44;87.72;102653.72;10490680;28;20044;-78
2022/01/27 21:49:54;;;;;;;9.00;4.43;;;;;;;3.20;87.16;102667.59;10492959;28;20075;-78
2022/01/27 21:54:54;;;;;;;20.55;6.55;;;;;;;3.00;88.09;102670.63;10474859;28;20113;-78
2022/01/27 21:59:55;;;;;;;9.95;4.07;;;;;;;2.87;88.75;102668.41;10491360;28;20032;-79
2022/01/27 22:04:56;;;;;;;16.92;5.18;;;;;;;2.93;89.28;102666.47;10489668;28;20115;-79
2022/01/27 22:10:01;;;;;;;13.48;5.00;;;;;;;2.78;89.28;102674.41;10477551;28;20029;-78
2022/01/27 22:15:05;;;;;;;14.95;3.95;;;;;;;2.78;89.42;102682.16;10469539;28;20048;-78
2022/01/27 22:20:06;;;;;;;17.65;4.18;;;;;;;2.83;89.94;102690.41;10476448;28;20514;-78
2022/01/27 22:25:08;;;;;;;15.65;5.55;;;;;;;2.80;89.45;102687.50;10490369;28;20055;-79
2022/01/27 22:30:16;;;;;;;16.27;5.18;;;;;;;2.78;89.37;102692.50;10474083;28;20033;-78
2022/01/27 22:35:23;;;;;;;21.38;5.18;;;;;;;2.74;89.27;102694.59;10484717;28;20036;-78
2022/01/27 22:40:24;;;;;;;17.93;3.57;;;;;;;2.68;89.66;102688.75;10487935;28;20028;-78
2022/01/27 22:45:26;;;;;;;17.40;6.57;;;;;;;2.67;89.50;102702.44;10475949;28;20040;-78
2022/01/27 22:50:33;;;;;;;12.68;4.03;;;;;;;2.55;89.51;102705.50;10481358;28;20059;-78
2022/01/27 22:55:39;;;;;;;14.98;3.40;;;;;;;2.51;89.43;102710.19;10484507;28;20032;-78
2022/01/27 23:00:42;;;;;;;12.90;3.55;;;;;;;2.49;90.07;102720.34;10468928;28;20060;-78
2022/01/27 23:05:52;;;;;;;14.48;5.00;;;;;;;2.52;90.22;102724.94;10485409;28;20444;-78
2022/01/27 23:10:53;;;;;;;19.08;4.15;;;;;;;2.59;90.19;102724.88;10460446;28;20460;-79
2022/01/27 23:21:19;;;;;;;14.80;4.70;;;;;;;2.74;89.60;102730.78;10475613;28;20039;-77
2022/01/27 23:26:45;;;;;;;18.33;5.90;;;;;;;2.76;89.52;102730.22;10480464;28;20035;-78
2022/01/27 23:31:43;;;;;;;20.20;4.35;;;;;;;2.84;88.88;102735.31;10491795;28;20083;-78
2022/01/27 23:42:11;;;;;;;21.75;4.90;;;;;;;2.55;88.91;102745.97;10493085;28;20040;-78
2022/01/27 23:57:55;;;;;;;13.30;4.13;;;;;;;2.15;89.83;102769.22;10492933;28;20495;-78
